This is the latest recevied weather packets stored in our database for station/object KD7AWQ. If no packets are shown the sender has not sent any weather packets the latest 10 day(s).
| Time | Temp. | Humidity | Pressure | Rain* | Wind** | Luminosity | Snow |
|---|---|---|---|---|---|---|---|
| 1778033847 | 15.56° C | 40% | 1180.2 hPa | 0 mm | - | 1 W/m² | - |
| 1778033544 | 15.56° C | 41% | 1180.1 hPa | 0 mm | - | 2 W/m² | - |
| 1778033240 | 15.56° C | 41% | 1180 hPa | 0 mm | - | 4 W/m² | - |
| 1778032636 | 15.56° C | 42% | 1180.2 hPa | 0 mm | - | 10 W/m² | - |
| 1778031424 | 16.11° C | 41% | 1179.8 hPa | 0 mm | - | 20 W/m² | - |
| 1778031121 | 16.11° C | 40% | 1179.6 hPa | 0 mm | - | 25 W/m² | - |
| 1778030817 | 16.67° C | 39% | 1179.7 hPa | 0 mm | - | 29 W/m² | - |
| 1778029606 | 17.22° C | 35% | 1179.6 hPa | 0 mm | - | 44 W/m² | - |
| 1778027786 | 18.33° C | 34% | 1179.5 hPa | 0 mm | - | 214 W/m² | - |
| 1778027179 | 18.33° C | 35% | 1179.3 hPa | 0 mm | - | 283 W/m² | - |
| 1778026571 | 18.33° C | 35% | 1179.3 hPa | 0 mm | - | 180 W/m² | - |
| 1778025966 | 18.89° C | 34% | 1179.2 hPa | 0 mm | - | 426 W/m² | - |
| 1778025663 | 18.89° C | 35% | 1178.8 hPa | 0 mm | - | 443 W/m² | - |
| 1778025361 | 18.89° C | 35% | 1179.3 hPa | 0 mm | - | 445 W/m² | - |
| 1778024149 | 18.89° C | 38% | 1179 hPa | 0 mm | - | 510 W/m² | - |
| 1778023846 | 18.89° C | 40% | 1178.8 hPa | 0 mm | - | 419 W/m² | - |
| 1778023544 | 18.89° C | 41% | 1179.2 hPa | 0 mm | - | 568 W/m² | - |
| 1778021423 | 18.89° C | 39% | 1178.8 hPa | 0 mm | - | 163 W/m² | - |
| 1778019300 | 18.33° C | 43% | 1179.4 hPa | 0 mm | - | 247 W/m² | - |
| 1778018997 | 19.44° C | 42% | 1179.7 hPa | 0 mm | - | 327 W/m² | - |
| 1778017182 | 17.78° C | 45% | 1179.6 hPa | 0 mm | - | 157 W/m² | - |
| 1778015969 | 19.44° C | 36% | 1179.6 hPa | 0 mm | - | 1129 W/m² | - |
| 1778013546 | 18.33° C | 44% | 1180.2 hPa | 0 mm | - | 474 W/m² | - |
| 1778013243 | 18.89° C | 42% | 1180.3 hPa | 0 mm | - | 220 W/m² | - |
| 1778012939 | 18.33° C | 41% | 1180.4 hPa | 0 mm | - | 1273 W/m² | - |
* Rain latest hour (hover to see other rain measurements)
** Current wind speed in m/s (hover to see current wind gust speed)